FQLC

Lichinga Airport

Lichinga, Mozambique
TAF FQLC 210400Z 2106/2206 19006KT 9999 BKN015 FEW020CB PROB30 TEMPO 2106/2112 5000 -RADZ SCT010 BKN015 BECMG 2112/2114 10010KT BECMG 2118/2120 VRB02KT TX26/2113Z TN16/2203Z
Issued Valid From Valid To
Apr-21 @ 04:00 UTC
(5 hours ago)
Apr-21 @ 06:00 UTC
(3 hours ago)
Apr-22 @ 06:00 UTC
(in 21 hours)
Apr-21 @ 06:00 to Apr-21 @ 12:00
TAF FQLC 210400Z 2106/2206 19006KT 9999 BKN015 FEW020CB
Wind Visibility Clouds
190° at 6 knots 10,000+ meters
  • Broken at 1,500' AGL
  • Few at 2,000' AGL
Temporary  (Probability 30%) Apr-21 @ 06:00 to Apr-21 @ 12:00
PROB30 TEMPO 2106/2112 5000 -RADZ SCT010 BKN015
Visibility Clouds Conditions
5,005 meters
  • Scattered at 1,000' AGL
  • Broken at 1,500' AGL
  • Light Rain
  • Light Drizzle
Becoming Apr-21 @ 12:00 to Apr-21 @ 18:00
BECMG 2112/2114 10010KT
Wind Visibility Clouds
100° at 10 knots 10,000+ meters
  • Broken at 1,500' AGL
  • Few at 2,000' AGL
Becoming Apr-21 @ 18:00 to Apr-22 @ 06:00
BECMG 2118/2120 VRB02KT TX26/2113Z TN16/2203Z
Wind Visibility Clouds
Variable at 2 knots 10,000+ meters
  • Broken at 1,500' AGL
  • Few at 2,000' AGL
TAF FQLC 210400Z 2106/2206 19006KT 9999 BKN015 FEW020CB PROB30 TEMPO 2106/2112 5000 -RADZ SCT010 BKN015 BECMG 2112/2114 10010KT BECMG 2118/2120 VRB02KT TX26/2113Z TN16/2203Z
Issued Apr-21 @ 04:00 UTC
(5 hours ago)
Valid From Apr-21 @ 06:00 UTC
(3 hours ago)
Valid To Apr-22 @ 06:00 UTC
(in 21 hours)
Apr-21 @ 06:00 - Apr-21 @ 12:00
Wind Visibility
190° at 6 knots 10,000+ meters
Clouds
  • Broken at 1,500' AGL
  • Few at 2,000' AGL
Probability 30% Temporary Apr-21 @ 06:00 - Apr-21 @ 12:00
Clouds
  • Scattered at 1,000' AGL
  • Broken at 1,500' AGL
Conditions
  • Light Rain
  • Light Drizzle
Becoming Apr-21 @ 12:00 - Apr-21 @ 18:00
Wind Visibility
100° at 10 knots 10,000+ meters
Clouds
  • Broken at 1,500' AGL
  • Few at 2,000' AGL
Becoming Apr-21 @ 18:00 - Apr-22 @ 06:00
Wind Visibility
Variable at 2 knots 10,000+ meters
Clouds
  • Broken at 1,500' AGL
  • Few at 2,000' AGL